sensor_id;sensor_type;location;lat;lon;timestamp;pressure;altitude;pressure_sealevel;temperature;humidity
64211;BME280;50528;48.514;14.394;2023-07-20T00:00:05;93527.18;;;18.68;64.97
64211;BME280;50528;48.514;14.394;2023-07-20T00:01:12;93535.23;;;18.64;64.94
64211;BME280;50528;48.514;14.394;2023-07-20T00:01:46;93539.40;;;18.66;64.90
64211;BME280;50528;48.514;14.394;2023-07-20T00:02:19;93542.65;;;18.65;64.88
64211;BME280;50528;48.514;14.394;2023-07-20T00:03:10;93545.14;;;18.66;65.06
64211;BME280;50528;48.514;14.394;2023-07-20T00:03:43;93548.73;;;18.67;65.05
64211;BME280;50528;48.514;14.394;2023-07-20T00:04:17;93545.86;;;18.67;65.25
64211;BME280;50528;48.514;14.394;2023-07-20T00:04:50;93545.76;;;18.68;65.25
64211;BME280;50528;48.514;14.394;2023-07-20T00:05:24;93544.50;;;18.70;65.48
64211;BME280;50528;48.514;14.394;2023-07-20T00:05:58;93542.88;;;18.71;65.58
64211;BME280;50528;48.514;14.394;2023-07-20T00:06:31;93542.23;;;18.72;65.67
64211;BME280;50528;48.514;14.394;2023-07-20T00:07:05;93542.20;;;18.73;65.76
64211;BME280;50528;48.514;14.394;2023-07-20T00:07:38;93545.87;;;18.75;65.85
64211;BME280;50528;48.514;14.394;2023-07-20T00:08:11;93545.82;;;18.77;65.85
64211;BME280;50528;48.514;14.394;2023-07-20T00:08:45;93547.88;;;18.78;66.05
64211;BME280;50528;48.514;14.394;2023-07-20T00:09:18;93551.13;;;18.79;66.22
64211;BME280;50528;48.514;14.394;2023-07-20T00:09:52;93549.98;;;18.81;66.31
64211;BME280;50528;48.514;14.394;2023-07-20T00:10:25;93546.89;;;18.81;66.29
64211;BME280;50528;48.514;14.394;2023-07-20T00:10:58;93551.23;;;18.82;66.18
64211;BME280;50528;48.514;14.394;2023-07-20T00:11:35;93562.05;;;18.82;66.23
64211;BME280;50528;48.514;14.394;2023-07-20T00:12:11;93566.27;;;18.81;66.17
64211;BME280;50528;48.514;14.394;2023-07-20T00:12:47;93565.10;;;18.80;66.14
64211;BME280;50528;48.514;14.394;2023-07-20T00:13:23;93565.83;;;18.78;66.07
64211;BME280;50528;48.514;14.394;2023-07-20T00:13:56;93567.33;;;18.77;66.31
64211;BME280;50528;48.514;14.394;2023-07-20T00:14:29;93563.85;;;18.78;66.31
64211;BME280;50528;48.514;14.394;2023-07-20T00:15:03;93560.55;;;18.79;66.07
64211;BME280;50528;48.514;14.394;2023-07-20T00:15:38;93561.81;;;18.78;65.58
64211;BME280;50528;48.514;14.394;2023-07-20T00:16:11;93557.80;;;18.77;65.62
64211;BME280;50528;48.514;14.394;2023-07-20T00:16:45;93561.88;;;18.78;65.39
64211;BME280;50528;48.514;14.394;2023-07-20T00:17:19;93558.77;;;18.76;65.22
64211;BME280;50528;48.514;14.394;2023-07-20T00:17:53;93561.60;;;18.76;65.51
64211;BME280;50528;48.514;14.394;2023-07-20T00:18:26;93546.93;;;18.77;65.39
64211;BME280;50528;48.514;14.394;2023-07-20T00:19:00;93539.19;;;18.78;65.06
64211;BME280;50528;48.514;14.394;2023-07-20T00:19:33;93534.95;;;18.77;65.09
64211;BME280;50528;48.514;14.394;2023-07-20T00:20:08;93533.17;;;18.78;65.32
64211;BME280;50528;48.514;14.394;2023-07-20T00:20:41;93534.81;;;18.85;65.46
64211;BME280;50528;48.514;14.394;2023-07-20T00:21:15;93535.14;;;18.86;65.51
64211;BME280;50528;48.514;14.394;2023-07-20T00:21:48;93531.60;;;18.79;65.53
64211;BME280;50528;48.514;14.394;2023-07-20T00:22:22;93536.95;;;18.76;65.96
64211;BME280;50528;48.514;14.394;2023-07-20T00:22:55;93539.77;;;18.73;66.35
64211;BME280;50528;48.514;14.394;2023-07-20T00:23:31;93537.69;;;18.70;66.48
64211;BME280;50528;48.514;14.394;2023-07-20T00:24:08;93537.37;;;18.68;66.58
64211;BME280;50528;48.514;14.394;2023-07-20T00:24:41;93537.84;;;18.66;66.16
64211;BME280;50528;48.514;14.394;2023-07-20T00:25:15;93536.99;;;18.68;65.82
64211;BME280;50528;48.514;14.394;2023-07-20T00:25:48;93530.90;;;18.65;65.50
64211;BME280;50528;48.514;14.394;2023-07-20T00:26:22;93529.71;;;18.65;65.52
64211;BME280;50528;48.514;14.394;2023-07-20T00:26:56;93533.27;;;18.63;64.97
64211;BME280;50528;48.514;14.394;2023-07-20T00:27:29;93534.77;;;18.63;65.95
64211;BME280;50528;48.514;14.394;2023-07-20T00:28:03;93533.45;;;18.61;66.11
64211;BME280;50528;48.514;14.394;2023-07-20T00:28:37;93537.56;;;18.60;65.93
64211;BME280;50528;48.514;14.394;2023-07-20T00:29:11;93538.05;;;18.60;65.96
64211;BME280;50528;48.514;14.394;2023-07-20T00:29:45;93539.05;;;18.60;65.63
64211;BME280;50528;48.514;14.394;2023-07-20T00:30:19;93539.70;;;18.57;65.46
64211;BME280;50528;48.514;14.394;2023-07-20T00:30:52;93537.61;;;18.58;65.66
64211;BME280;50528;48.514;14.394;2023-07-20T00:31:26;93541.02;;;18.58;65.71
64211;BME280;50528;48.514;14.394;2023-07-20T00:32:02;93543.08;;;18.56;65.89
64211;BME280;50528;48.514;14.394;2023-07-20T00:32:38;93544.19;;;18.54;66.22
64211;BME280;50528;48.514;14.394;2023-07-20T00:33:12;93544.30;;;18.53;66.14
64211;BME280;50528;48.514;14.394;2023-07-20T00:33:46;93544.74;;;18.53;66.06
64211;BME280;50528;48.514;14.394;2023-07-20T00:34:19;93549.41;;;18.53;66.09
64211;BME280;50528;48.514;14.394;2023-07-20T00:34:53;93548.55;;;18.51;66.13
64211;BME280;50528;48.514;14.394;2023-07-20T00:35:26;93547.92;;;18.50;66.28
64211;BME280;50528;48.514;14.394;2023-07-20T00:36:00;93550.30;;;18.51;66.40
64211;BME280;50528;48.514;14.394;2023-07-20T00:36:33;93547.30;;;18.50;66.05
64211;BME280;50528;48.514;14.394;2023-07-20T00:37:07;93550.33;;;18.50;66.05
64211;BME280;50528;48.514;14.394;2023-07-20T00:37:40;93548.42;;;18.50;65.56
64211;BME280;50528;48.514;14.394;2023-07-20T00:38:14;93551.00;;;18.46;65.62
64211;BME280;50528;48.514;14.394;2023-07-20T00:38:47;93550.71;;;18.50;65.34
64211;BME280;50528;48.514;14.394;2023-07-20T00:39:22;93548.48;;;18.48;64.73
64211;BME280;50528;48.514;14.394;2023-07-20T00:39:55;93547.27;;;18.49;64.58
64211;BME280;50528;48.514;14.394;2023-07-20T00:40:28;93548.81;;;18.47;64.43
64211;BME280;50528;48.514;14.394;2023-07-20T00:41:01;93547.79;;;18.48;64.48
64211;BME280;50528;48.514;14.394;2023-07-20T00:41:35;93548.08;;;18.49;64.34
64211;BME280;50528;48.514;14.394;2023-07-20T00:42:08;93542.95;;;18.51;64.01
64211;BME280;50528;48.514;14.394;2023-07-20T00:42:42;93543.39;;;18.46;64.29
64211;BME280;50528;48.514;14.394;2023-07-20T00:43:15;93538.80;;;18.49;64.21
64211;BME280;50528;48.514;14.394;2023-07-20T00:43:48;93534.45;;;18.53;63.83
64211;BME280;50528;48.514;14.394;2023-07-20T00:44:22;93534.91;;;18.50;63.77
64211;BME280;50528;48.514;14.394;2023-07-20T00:44:55;93536.30;;;18.47;63.87
64211;BME280;50528;48.514;14.394;2023-07-20T00:45:29;93532.79;;;18.44;63.82
64211;BME280;50528;48.514;14.394;2023-07-20T00:46:03;93539.09;;;18.46;64.13
64211;BME280;50528;48.514;14.394;2023-07-20T00:46:36;93547.39;;;18.44;64.21
64211;BME280;50528;48.514;14.394;2023-07-20T00:47:10;93545.84;;;18.42;64.30
64211;BME280;50528;48.514;14.394;2023-07-20T00:47:43;93546.00;;;18.42;64.42
64211;BME280;50528;48.514;14.394;2023-07-20T00:48:17;93555.98;;;18.46;64.27
64211;BME280;50528;48.514;14.394;2023-07-20T00:48:51;93560.41;;;18.46;64.17
64211;BME280;50528;48.514;14.394;2023-07-20T00:49:25;93566.91;;;18.44;64.26
64211;BME280;50528;48.514;14.394;2023-07-20T00:49:59;93576.22;;;18.43;64.21
64211;BME280;50528;48.514;14.394;2023-07-20T00:50:33;93575.30;;;18.43;64.15
64211;BME280;50528;48.514;14.394;2023-07-20T00:51:07;93578.86;;;18.41;64.37
64211;BME280;50528;48.514;14.394;2023-07-20T00:51:41;93582.08;;;18.39;64.41
64211;BME280;50528;48.514;14.394;2023-07-20T00:52:15;93581.34;;;18.42;64.40
64211;BME280;50528;48.514;14.394;2023-07-20T00:52:48;93580.34;;;18.38;64.36
64211;BME280;50528;48.514;14.394;2023-07-20T00:53:24;93578.16;;;18.40;63.79
64211;BME280;50528;48.514;14.394;2023-07-20T00:53:57;93574.26;;;18.35;63.75
64211;BME280;50528;48.514;14.394;2023-07-20T00:54:31;93576.48;;;18.33;63.72
64211;BME280;50528;48.514;14.394;2023-07-20T00:55:06;93574.84;;;18.32;63.72
64211;BME280;50528;48.514;14.394;2023-07-20T00:55:40;93577.88;;;18.32;63.90
64211;BME280;50528;48.514;14.394;2023-07-20T00:56:15;93579.41;;;18.31;64.08
64211;BME280;50528;48.514;14.394;2023-07-20T00:56:48;93579.11;;;18.29;64.20
64211;BME280;50528;48.514;14.394;2023-07-20T00:57:24;93570.98;;;18.33;63.80
64211;BME280;50528;48.514;14.394;2023-07-20T00:57:59;93579.51;;;18.29;63.88
64211;BME280;50528;48.514;14.394;2023-07-20T00:58:33;93575.92;;;18.30;63.95
64211;BME280;50528;48.514;14.394;2023-07-20T00:59:07;93568.33;;;18.33;63.78
64211;BME280;50528;48.514;14.394;2023-07-20T00:59:40;93565.01;;;18.32;63.52
64211;BME280;50528;48.514;14.394;2023-07-20T01:00:14;93561.08;;;18.34;63.51
64211;BME280;50528;48.514;14.394;2023-07-20T01:00:50;93553.95;;;18.34;63.62
64211;BME280;50528;48.514;14.394;2023-07-20T01:01:24;93548.89;;;18.32;63.88
64211;BME280;50528;48.514;14.394;2023-07-20T01:01:58;93540.46;;;18.32;63.66
64211;BME280;50528;48.514;14.394;2023-07-20T01:02:31;93535.38;;;18.32;63.37
64211;BME280;50528;48.514;14.394;2023-07-20T01:03:05;93528.89;;;18.33;63.46
64211;BME280;50528;48.514;14.394;2023-07-20T01:03:39;93520.54;;;18.33;63.63
64211;BME280;50528;48.514;14.394;2023-07-20T01:04:13;93510.45;;;18.32;63.83
64211;BME280;50528;48.514;14.394;2023-07-20T01:04:47;93502.34;;;18.33;63.88
64211;BME280;50528;48.514;14.394;2023-07-20T01:05:27;93498.65;;;18.30;64.04
64211;BME280;50528;48.514;14.394;2023-07-20T01:06:48;93498.55;;;18.30;64.22
64211;BME280;50528;48.514;14.394;2023-07-20T01:07:31;93512.65;;;18.20;64.38
64211;BME280;50528;48.514;14.394;2023-07-20T01:08:15;93519.55;;;18.19;64.10
64211;BME280;50528;48.514;14.394;2023-07-20T01:09:04;93523.73;;;18.17;64.49
64211;BME280;50528;48.514;14.394;2023-07-20T01:09:48;93525.53;;;18.18;64.49
64211;BME280;50528;48.514;14.394;2023-07-20T01:10:33;93529.98;;;18.19;64.59
64211;BME280;50528;48.514;14.394;2023-07-20T01:11:38;93529.95;;;18.18;64.88
64211;BME280;50528;48.514;14.394;2023-07-20T01:13:13;93533.17;;;18.15;64.88
64211;BME280;50528;48.514;14.394;2023-07-20T01:13:47;93536.42;;;18.16;65.21
64211;BME280;50528;48.514;14.394;2023-07-20T01:14:21;93538.73;;;18.18;65.40
64211;BME280;50528;48.514;14.394;2023-07-20T01:14:56;93538.52;;;18.18;65.43
64211;BME280;50528;48.514;14.394;2023-07-20T01:15:29;93536.71;;;18.18;65.46
64211;BME280;50528;48.514;14.394;2023-07-20T01:16:03;93536.39;;;18.18;65.40
64211;BME280;50528;48.514;14.394;2023-07-20T01:16:36;93537.66;;;18.18;65.67
64211;BME280;50528;48.514;14.394;2023-07-20T01:17:10;93538.69;;;18.20;65.85
64211;BME280;50528;48.514;14.394;2023-07-20T01:17:43;93537.99;;;18.20;65.72
64211;BME280;50528;48.514;14.394;2023-07-20T01:18:17;93546.54;;;18.21;65.71
64211;BME280;50528;48.514;14.394;2023-07-20T01:18:51;93546.34;;;18.20;65.72
64211;BME280;50528;48.514;14.394;2023-07-20T01:19:24;93548.66;;;18.20;66.00
64211;BME280;50528;48.514;14.394;2023-07-20T01:19:57;93549.38;;;18.22;65.67
64211;BME280;50528;48.514;14.394;2023-07-20T01:20:32;93546.65;;;18.22;65.53
64211;BME280;50528;48.514;14.394;2023-07-20T01:21:09;93545.09;;;18.20;65.49
64211;BME280;50528;48.514;14.394;2023-07-20T01:24:51;93528.77;;;18.04;65.70
64211;BME280;50528;48.514;14.394;2023-07-20T01:27:33;93532.16;;;17.93;65.74
64211;BME280;50528;48.514;14.394;2023-07-20T01:30:25;93539.26;;;17.86;65.98
64211;BME280;50528;48.514;14.394;2023-07-20T01:31:21;93540.30;;;17.85;65.95
64211;BME280;50528;48.514;14.394;2023-07-20T01:31:57;93537.52;;;17.82;66.14
64211;BME280;50528;48.514;14.394;2023-07-20T01:32:31;93541.59;;;17.83;66.24
64211;BME280;50528;48.514;14.394;2023-07-20T01:33:05;93543.78;;;17.84;66.34
64211;BME280;50528;48.514;14.394;2023-07-20T01:33:41;93541.84;;;17.83;66.59
64211;BME280;50528;48.514;14.394;2023-07-20T01:34:17;93545.73;;;17.82;66.29
64211;BME280;50528;48.514;14.394;2023-07-20T01:34:54;93540.49;;;17.81;66.48
64211;BME280;50528;48.514;14.394;2023-07-20T01:35:31;93544.21;;;17.81;66.63
64211;BME280;50528;48.514;14.394;2023-07-20T01:36:06;93542.25;;;17.84;66.67
64211;BME280;50528;48.514;14.394;2023-07-20T01:36:41;93544.52;;;17.82;66.75
64211;BME280;50528;48.514;14.394;2023-07-20T01:37:17;93545.08;;;17.83;66.86
64211;BME280;50528;48.514;14.394;2023-07-20T01:37:53;93545.38;;;17.84;66.88
64211;BME280;50528;48.514;14.394;2023-07-20T01:38:29;93545.06;;;17.81;66.90
64211;BME280;50528;48.514;14.394;2023-07-20T01:39:02;93545.41;;;17.79;66.86
64211;BME280;50528;48.514;14.394;2023-07-20T01:39:38;93546.70;;;17.79;66.86
64211;BME280;50528;48.514;14.394;2023-07-20T01:40:13;93549.66;;;17.78;67.12
64211;BME280;50528;48.514;14.394;2023-07-20T01:40:48;93547.41;;;17.77;67.02
64211;BME280;50528;48.514;14.394;2023-07-20T01:41:21;93544.87;;;17.78;67.28
64211;BME280;50528;48.514;14.394;2023-07-20T01:41:54;93549.29;;;17.78;67.28
64211;BME280;50528;48.514;14.394;2023-07-20T01:42:29;93553.10;;;17.76;67.36
64211;BME280;50528;48.514;14.394;2023-07-20T01:43:02;93553.55;;;17.75;67.33
64211;BME280;50528;48.514;14.394;2023-07-20T01:43:36;93555.95;;;17.75;67.13
64211;BME280;50528;48.514;14.394;2023-07-20T01:44:10;93556.59;;;17.72;67.33
64211;BME280;50528;48.514;14.394;2023-07-20T01:44:45;93560.38;;;17.71;67.39
64211;BME280;50528;48.514;14.394;2023-07-20T01:45:18;93559.30;;;17.69;67.45
64211;BME280;50528;48.514;14.394;2023-07-20T01:45:52;93560.48;;;17.72;67.41
64211;BME280;50528;48.514;14.394;2023-07-20T01:46:25;93566.19;;;17.73;67.46
64211;BME280;50528;48.514;14.394;2023-07-20T01:47:00;93560.51;;;17.73;67.37
64211;BME280;50528;48.514;14.394;2023-07-20T01:47:33;93561.31;;;17.74;67.49
64211;BME280;50528;48.514;14.394;2023-07-20T01:48:07;93561.30;;;17.73;67.27
64211;BME280;50528;48.514;14.394;2023-07-20T01:48:40;93560.04;;;17.74;67.51
64211;BME280;50528;48.514;14.394;2023-07-20T01:50:42;93555.55;;;17.68;67.15
64211;BME280;50528;48.514;14.394;2023-07-20T01:51:16;93559.59;;;17.62;67.11
64211;BME280;50528;48.514;14.394;2023-07-20T01:51:51;93560.34;;;17.62;67.12
64211;BME280;50528;48.514;14.394;2023-07-20T01:52:24;93563.32;;;17.62;67.26
64211;BME280;50528;48.514;14.394;2023-07-20T01:52:57;93563.97;;;17.65;67.36
64211;BME280;50528;48.514;14.394;2023-07-20T01:53:30;93562.13;;;17.67;67.20
64211;BME280;50528;48.514;14.394;2023-07-20T01:54:04;93561.53;;;17.69;67.32
64211;BME280;50528;48.514;14.394;2023-07-20T01:54:37;93557.92;;;17.68;67.59
64211;BME280;50528;48.514;14.394;2023-07-20T01:55:10;93556.71;;;17.68;67.40
64211;BME280;50528;48.514;14.394;2023-07-20T01:55:44;93555.70;;;17.68;67.37
64211;BME280;50528;48.514;14.394;2023-07-20T01:56:19;93553.03;;;17.69;67.48
64211;BME280;50528;48.514;14.394;2023-07-20T01:56:52;93555.52;;;17.69;67.47
64211;BME280;50528;48.514;14.394;2023-07-20T01:57:26;93559.02;;;17.70;67.35
64211;BME280;50528;48.514;14.394;2023-07-20T01:57:59;93553.58;;;17.71;67.44
64211;BME280;50528;48.514;14.394;2023-07-20T01:58:34;93555.46;;;17.73;67.25
64211;BME280;50528;48.514;14.394;2023-07-20T01:59:07;93554.23;;;17.78;67.11
64211;BME280;50528;48.514;14.394;2023-07-20T01:59:40;93544.14;;;17.73;67.05
64211;BME280;50528;48.514;14.394;2023-07-20T02:00:14;93550.88;;;17.75;67.13
64211;BME280;50528;48.514;14.394;2023-07-20T02:00:47;93547.02;;;17.74;66.99
64211;BME280;50528;48.514;14.394;2023-07-20T02:01:24;93549.42;;;17.73;67.12
64211;BME280;50528;48.514;14.394;2023-07-20T02:01:58;93550.02;;;17.73;67.11
64211;BME280;50528;48.514;14.394;2023-07-20T02:02:31;93551.59;;;17.74;67.09
64211;BME280;50528;48.514;14.394;2023-07-20T02:03:05;93552.30;;;17.73;67.15
64211;BME280;50528;48.514;14.394;2023-07-20T02:03:39;93552.85;;;17.75;67.25
64211;BME280;50528;48.514;14.394;2023-07-20T02:04:12;93551.95;;;17.75;67.07
64211;BME280;50528;48.514;14.394;2023-07-20T02:04:46;93550.83;;;17.76;67.41
64211;BME280;50528;48.514;14.394;2023-07-20T02:05:20;93553.70;;;17.78;67.28
64211;BME280;50528;48.514;14.394;2023-07-20T02:05:55;93550.78;;;17.77;67.40
64211;BME280;50528;48.514;14.394;2023-07-20T02:06:31;93554.02;;;17.80;67.26
64211;BME280;50528;48.514;14.394;2023-07-20T02:07:04;93552.86;;;17.79;67.15
64211;BME280;50528;48.514;14.394;2023-07-20T02:07:38;93553.96;;;17.80;67.16
64211;BME280;50528;48.514;14.394;2023-07-20T02:08:12;93555.19;;;17.83;67.19
64211;BME280;50528;48.514;14.394;2023-07-20T02:08:46;93554.80;;;17.86;66.77
64211;BME280;50528;48.514;14.394;2023-07-20T02:09:19;93558.05;;;17.84;66.82
64211;BME280;50528;48.514;14.394;2023-07-20T02:09:53;93558.27;;;17.82;66.94
64211;BME280;50528;48.514;14.394;2023-07-20T02:10:26;93556.77;;;17.81;66.91
64211;BME280;50528;48.514;14.394;2023-07-20T02:10:59;93562.70;;;17.82;66.93
64211;BME280;50528;48.514;14.394;2023-07-20T02:11:33;93561.92;;;17.81;66.89
64211;BME280;50528;48.514;14.394;2023-07-20T02:12:06;93562.02;;;17.84;66.89
64211;BME280;50528;48.514;14.394;2023-07-20T02:12:40;93563.58;;;17.84;66.73
64211;BME280;50528;48.514;14.394;2023-07-20T02:13:13;93560.48;;;17.84;66.76
64211;BME280;50528;48.514;14.394;2023-07-20T02:13:47;93557.55;;;17.86;66.57
64211;BME280;50528;48.514;14.394;2023-07-20T02:14:20;93562.80;;;17.83;66.68
64211;BME280;50528;48.514;14.394;2023-07-20T02:14:55;93561.58;;;17.87;66.57
64211;BME280;50528;48.514;14.394;2023-07-20T02:15:29;93560.90;;;17.86;66.25
64211;BME280;50528;48.514;14.394;2023-07-20T02:16:02;93561.02;;;17.84;66.33
64211;BME280;50528;48.514;14.394;2023-07-20T02:16:36;93557.59;;;17.82;66.38
64211;BME280;50528;48.514;14.394;2023-07-20T02:17:09;93557.89;;;17.84;66.36
64211;BME280;50528;48.514;14.394;2023-07-20T02:17:46;93561.58;;;17.83;66.43
64211;BME280;50528;48.514;14.394;2023-07-20T02:18:19;93563.20;;;17.85;66.29
64211;BME280;50528;48.514;14.394;2023-07-20T02:18:53;93561.27;;;17.84;66.07
64211;BME280;50528;48.514;14.394;2023-07-20T02:19:26;93564.25;;;17.82;66.17
64211;BME280;50528;48.514;14.394;2023-07-20T02:20:00;93568.27;;;17.80;66.19
64211;BME280;50528;48.514;14.394;2023-07-20T02:20:35;93570.81;;;17.78;66.36
64211;BME280;50528;48.514;14.394;2023-07-20T02:21:08;93569.67;;;17.81;66.28
64211;BME280;50528;48.514;14.394;2023-07-20T02:21:41;93572.01;;;17.82;66.18
64211;BME280;50528;48.514;14.394;2023-07-20T02:22:15;93569.86;;;17.78;66.24
64211;BME280;50528;48.514;14.394;2023-07-20T02:22:49;93573.60;;;17.77;66.12
64211;BME280;50528;48.514;14.394;2023-07-20T02:23:23;93576.52;;;17.78;66.32
64211;BME280;50528;48.514;14.394;2023-07-20T02:23:56;93574.48;;;17.78;66.33
64211;BME280;50528;48.514;14.394;2023-07-20T02:24:30;93579.10;;;17.78;66.13
64211;BME280;50528;48.514;14.394;2023-07-20T02:25:08;93574.99;;;17.81;66.08
64211;BME280;50528;48.514;14.394;2023-07-20T02:25:41;93571.59;;;17.79;66.22
64211;BME280;50528;48.514;14.394;2023-07-20T02:26:14;93574.34;;;17.77;66.26
64211;BME280;50528;48.514;14.394;2023-07-20T02:26:48;93573.14;;;17.79;66.19
64211;BME280;50528;48.514;14.394;2023-07-20T02:27:21;93569.63;;;17.82;66.27
64211;BME280;50528;48.514;14.394;2023-07-20T02:27:56;93576.38;;;17.81;66.08
64211;BME280;50528;48.514;14.394;2023-07-20T02:28:29;93571.98;;;17.83;65.99
64211;BME280;50528;48.514;14.394;2023-07-20T02:29:03;93565.61;;;17.81;65.97
64211;BME280;50528;48.514;14.394;2023-07-20T02:29:38;93571.45;;;17.83;65.98
64211;BME280;50528;48.514;14.394;2023-07-20T02:30:11;93568.77;;;17.82;65.89
64211;BME280;50528;48.514;14.394;2023-07-20T02:30:44;93570.46;;;17.82;65.97
64211;BME280;50528;48.514;14.394;2023-07-20T02:31:18;93570.52;;;17.84;65.82
64211;BME280;50528;48.514;14.394;2023-07-20T02:31:51;93571.40;;;17.85;65.79
64211;BME280;50528;48.514;14.394;2023-07-20T02:32:25;93572.79;;;17.83;65.83
64211;BME280;50528;48.514;14.394;2023-07-20T02:32:58;93574.77;;;17.84;65.76
64211;BME280;50528;48.514;14.394;2023-07-20T02:33:32;93566.94;;;17.77;65.84
64211;BME280;50528;48.514;14.394;2023-07-20T02:34:06;93576.16;;;17.82;65.83
64211;BME280;50528;48.514;14.394;2023-07-20T02:34:39;93577.02;;;17.84;65.90
64211;BME280;50528;48.514;14.394;2023-07-20T02:35:13;93580.06;;;17.84;65.85
64211;BME280;50528;48.514;14.394;2023-07-20T02:35:46;93576.02;;;17.85;65.96
64211;BME280;50528;48.514;14.394;2023-07-20T02:36:20;93579.59;;;17.89;65.64
64211;BME280;50528;48.514;14.394;2023-07-20T02:36:54;93581.26;;;17.87;65.68
64211;BME280;50528;48.514;14.394;2023-07-20T02:37:29;93577.02;;;17.84;65.77
64211;BME280;50528;48.514;14.394;2023-07-20T02:38:04;93578.77;;;17.85;65.75
64211;BME280;50528;48.514;14.394;2023-07-20T02:38:37;93579.39;;;17.88;65.62
64211;BME280;50528;48.514;14.394;2023-07-20T02:39:11;93576.91;;;17.89;65.65
64211;BME280;50528;48.514;14.394;2023-07-20T02:39:44;93577.80;;;17.91;65.59
64211;BME280;50528;48.514;14.394;2023-07-20T02:40:18;93579.67;;;17.91;65.52
64211;BME280;50528;48.514;14.394;2023-07-20T02:40:53;93578.34;;;17.91;65.55
64211;BME280;50528;48.514;14.394;2023-07-20T02:41:26;93580.81;;;17.96;65.53
64211;BME280;50528;48.514;14.394;2023-07-20T02:41:59;93580.61;;;17.92;65.59
64211;BME280;50528;48.514;14.394;2023-07-20T02:42:35;93582.87;;;17.91;65.45
64211;BME280;50528;48.514;14.394;2023-07-20T02:43:08;93582.00;;;17.92;65.58
64211;BME280;50528;48.514;14.394;2023-07-20T02:43:42;93584.35;;;17.91;65.73
64211;BME280;50528;48.514;14.394;2023-07-20T02:44:16;93590.05;;;17.91;65.77
64211;BME280;50528;48.514;14.394;2023-07-20T02:44:49;93589.30;;;17.94;65.69
64211;BME280;50528;48.514;14.394;2023-07-20T02:45:22;93590.55;;;17.92;65.63
64211;BME280;50528;48.514;14.394;2023-07-20T02:45:57;93589.21;;;17.93;65.68
64211;BME280;50528;48.514;14.394;2023-07-20T02:46:30;93592.56;;;17.93;65.64
64211;BME280;50528;48.514;14.394;2023-07-20T02:47:05;93593.08;;;17.94;65.65
64211;BME280;50528;48.514;14.394;2023-07-20T02:47:39;93589.46;;;17.94;65.72
64211;BME280;50528;48.514;14.394;2023-07-20T02:48:13;93591.31;;;17.95;65.72
64211;BME280;50528;48.514;14.394;2023-07-20T02:48:46;93591.63;;;17.95;65.93
64211;BME280;50528;48.514;14.394;2023-07-20T02:49:19;93588.16;;;17.97;65.85
64211;BME280;50528;48.514;14.394;2023-07-20T02:49:53;93587.31;;;17.97;65.66
64211;BME280;50528;48.514;14.394;2023-07-20T02:50:26;93587.63;;;17.97;65.83
64211;BME280;50528;48.514;14.394;2023-07-20T02:51:00;93587.20;;;17.97;65.70
64211;BME280;50528;48.514;14.394;2023-07-20T02:51:33;93581.11;;;17.96;65.78
64211;BME280;50528;48.514;14.394;2023-07-20T02:52:07;93582.45;;;17.96;65.71
64211;BME280;50528;48.514;14.394;2023-07-20T02:52:40;93584.91;;;17.97;65.74
64211;BME280;50528;48.514;14.394;2023-07-20T02:53:13;93582.84;;;17.97;65.85
64211;BME280;50528;48.514;14.394;2023-07-20T02:53:47;93581.99;;;17.97;65.81
64211;BME280;50528;48.514;14.394;2023-07-20T02:54:21;93580.16;;;17.98;65.79
64211;BME280;50528;48.514;14.394;2023-07-20T02:54:54;93583.48;;;18.00;65.88
64211;BME280;50528;48.514;14.394;2023-07-20T02:55:28;93584.38;;;18.00;65.81
64211;BME280;50528;48.514;14.394;2023-07-20T02:56:01;93583.10;;;18.00;66.10
64211;BME280;50528;48.514;14.394;2023-07-20T02:56:34;93589.49;;;18.01;66.08
64211;BME280;50528;48.514;14.394;2023-07-20T02:57:08;93589.55;;;18.00;66.19
64211;BME280;50528;48.514;14.394;2023-07-20T02:57:41;93590.27;;;17.99;66.24
64211;BME280;50528;48.514;14.394;2023-07-20T02:58:14;93589.36;;;17.98;66.16
64211;BME280;50528;48.514;14.394;2023-07-20T02:58:48;93596.88;;;18.01;66.22
64211;BME280;50528;48.514;14.394;2023-07-20T02:59:21;93596.14;;;18.00;66.21
64211;BME280;50528;48.514;14.394;2023-07-20T02:59:55;93598.83;;;18.02;66.42
64211;BME280;50528;48.514;14.394;2023-07-20T03:00:28;93600.30;;;18.02;66.26
64211;BME280;50528;48.514;14.394;2023-07-20T03:01:01;93605.34;;;18.03;66.26
64211;BME280;50528;48.514;14.394;2023-07-20T03:01:35;93602.23;;;18.07;65.99
64211;BME280;50528;48.514;14.394;2023-07-20T03:02:09;93601.66;;;18.03;65.97
64211;BME280;50528;48.514;14.394;2023-07-20T03:02:43;93600.13;;;17.98;66.18
64211;BME280;50528;48.514;14.394;2023-07-20T03:03:16;93598.89;;;17.96;66.23
64211;BME280;50528;48.514;14.394;2023-07-20T03:03:50;93598.68;;;17.96;66.22
64211;BME280;50528;48.514;14.394;2023-07-20T03:04:25;93596.61;;;17.96;66.07
64211;BME280;50528;48.514;14.394;2023-07-20T03:04:59;93596.02;;;17.98;66.12
64211;BME280;50528;48.514;14.394;2023-07-20T03:05:34;93595.30;;;18.03;65.78
64211;BME280;50528;48.514;14.394;2023-07-20T03:06:07;93595.56;;;17.95;65.90
64211;BME280;50528;48.514;14.394;2023-07-20T03:06:43;93597.77;;;17.94;65.96
64211;BME280;50528;48.514;14.394;2023-07-20T03:07:17;93593.80;;;17.97;65.91
64211;BME280;50528;48.514;14.394;2023-07-20T03:07:53;93593.18;;;17.94;66.19
64211;BME280;50528;48.514;14.394;2023-07-20T03:08:26;93599.21;;;17.92;66.22
64211;BME280;50528;48.514;14.394;2023-07-20T03:09:00;93598.32;;;17.92;66.42
64211;BME280;50528;48.514;14.394;2023-07-20T03:09:33;93599.95;;;17.99;66.20
64211;BME280;50528;48.514;14.394;2023-07-20T03:10:07;93598.00;;;18.01;65.80
64211;BME280;50528;48.514;14.394;2023-07-20T03:10:42;93592.45;;;17.93;65.92